Main page
METAR-TAF:

METAR-TAF

Airports :

Wick Airport

Wick, Scotland

latitude: 58-27N, longitude: 003-05W, elevation: 39 m

Current weather observation

The report was made 12 minutes ago, at 13:20 UTC
Wind 18 kt from the South with gusts up to 30 kt
Temperature 12°C
Humidity 88%
Pressure 1008 hPa
Visibility 10 km or more
Few clouds at a height of 1100 ft

METAR: EGPC 151320Z 17018G30KT 9999 FEW011 12/10 Q1008

Time: 13:32 (13:32 UTC)

Forecast

The report was made 2 hours and 32 minutes ago, at 11:00 UTC
Forecast valid from 15 at 12 UTC to 15 at 21 UTC
Wind 15 kt from the South/Southeast
Visibility 10 km or more
Few clouds at a height of 1000 ft
Temporary
from 15 at 12 UTC to 15 at 18 UTC
Wind 22 kt from the South with gusts up to 35 kt
Becoming
from 15 at 18 UTC to 15 at 21 UTC
Wind 12 kt from the Southwest

TAF: EGPC 151100Z 1512/1521 16015KT 9999 FEW010 TEMPO 1512/1518 19022G35KT BECMG 1518/1521 22012KT

Weather observations and forecasts of more than 4000 airports (METAR and TAF reports).

The available stations are represented by yellow and red dots on the map.

Hover mouse over dot to see the name of the station.

Then click to see weather observations and forecasts.

To change the map : click on the green buttons with a black cross to zoom in, on the green button with a dash to zoom out, or on the green arrows for adjacent maps.


METAR-TAF: